ΕΜΥ, Εθνική Μετεωρολογική Υπηρεσία - Δελτία Καιρού, Προγνώσεις

ΑΕΡΟΝΑΥΤΙΛΙΑ

GREEK AIRPORTS CODES

LGLE 201130Z AUTO 25011KT //// // ////// 17/09 Q1011 RE//=

EUROPEAN AIRPORTS CODES

LFPO 201130Z 21015KT 9999 FEW020 BKN045 10/06 Q1019 TEMPO21015G30KT=